Point Hope, AK

6:23 AM AKDT on September 29, 2016 (GMT -0800)
Point Hope | | Change Station

Elev 13 ft 68.35 °N, 166.80 °W | Updated 27 minutes ago

Mostly Cloudy
Mostly Cloudy
42 °F
Feels Like 34 °F
N
17
Wind Variable Wind from SSW

Today
High -- | Low -- °F
--% Chance of Precip.
Yesterday
High -- | Low -- °F
Precip. -- in
Pressure 30.18 in
Visibility 7.0 miles
Clouds Mostly Cloudy 10000 ft
Windchill 34 °F
Dew Point 38 °F
Humidity 85%
Rainfall 0.00 in
Snow Depth Not available.
9:16 AM 8:36 PM
Waning Crescent, 2% visible
METAR PAPO 291356Z AUTO 20015KT 7SM BKN100 06/03 A3018 RMK AO2 SLP219 T00560033
Pressure 30.18 in
Visibility 7.0 miles
Clouds Mostly Cloudy 10000 ft
Windchill 34 °F
Dew Point 38 °F
Humidity 85%
Rainfall 0.00 in
Snow Depth Not available.
9:16 AM 8:36 PM
Waning Crescent, 2% visible
METAR PAPO 291356Z AUTO 20015KT 7SM BKN100 06/03 A3018 RMK AO2 SLP219 T00560033

10-Day Weather Forecast

Almanac

Astronomy

Sep. 29, 2016 Rise Set
Actual Time
Civil Twilight
Nautical Twilight
Astronomical Twilight
Moon
Length of Visible Light
Length of Day
Tomorrow will be .
, % of the Moon is Illuminated

Today's Extremes

State Highs State Lows

Community

WunderPhotos

Upload Photos

1,942,480 photos uploaded!

WunderBlog® & News

Nearby

Air Quality

  Air Quality AQ Index Pollutant
Not available.

Snow Depth

Station Depth Elevation

Earthquake Activity

City Distance Mag. Time & Date
Minimum magnitude displayed is 2.5.

Coastal Water Temperatures

Place Temperature

Stations

Nearby Weather Stations

Station Location Temp. Windchill Dew Point Humidity Wind Precip. Elev Updated Type
                   

Watches & Warnings

There are currently no watches in effect.